sensor_id;sensor_type;location;lat;lon;timestamp;P1;durP1;ratioP1;P2;durP2;ratioP2
68168;SDS011;54981;50.206;15.978;2024-01-06T00:11:57;22.17;;;18.70;;
68168;SDS011;54981;50.206;15.978;2024-01-06T00:26:58;22.10;;;19.00;;
68168;SDS011;54981;50.206;15.978;2024-01-06T00:41:58;22.67;;;19.95;;
68168;SDS011;54981;50.206;15.978;2024-01-06T00:56:59;21.20;;;18.48;;
68168;SDS011;54981;50.206;15.978;2024-01-06T01:11:59;17.85;;;16.08;;
68168;SDS011;54981;50.206;15.978;2024-01-06T01:27:00;19.85;;;15.63;;
68168;SDS011;54981;50.206;15.978;2024-01-06T01:42:00;15.98;;;14.48;;
68168;SDS011;54981;50.206;15.978;2024-01-06T01:57:01;16.77;;;15.18;;
68168;SDS011;54981;50.206;15.978;2024-01-06T02:12:05;17.30;;;15.00;;
68168;SDS011;54981;50.206;15.978;2024-01-06T02:27:05;20.95;;;16.77;;
68168;SDS011;54981;50.206;15.978;2024-01-06T02:42:06;21.08;;;17.30;;
68168;SDS011;54981;50.206;15.978;2024-01-06T02:57:06;22.23;;;18.08;;
68168;SDS011;54981;50.206;15.978;2024-01-06T03:12:07;21.33;;;19.13;;
68168;SDS011;54981;50.206;15.978;2024-01-06T03:27:08;20.57;;;18.40;;
68168;SDS011;54981;50.206;15.978;2024-01-06T03:42:08;22.17;;;19.80;;
68168;SDS011;54981;50.206;15.978;2024-01-06T03:57:09;20.15;;;18.13;;
68168;SDS011;54981;50.206;15.978;2024-01-06T04:12:09;24.02;;;17.65;;
68168;SDS011;54981;50.206;15.978;2024-01-06T04:27:10;33.33;;;30.13;;
68168;SDS011;54981;50.206;15.978;2024-01-06T04:42:10;21.42;;;17.83;;
68168;SDS011;54981;50.206;15.978;2024-01-06T04:57:10;19.77;;;18.08;;
68168;SDS011;54981;50.206;15.978;2024-01-06T05:12:11;21.75;;;19.58;;
68168;SDS011;54981;50.206;15.978;2024-01-06T05:27:11;21.05;;;18.88;;
68168;SDS011;54981;50.206;15.978;2024-01-06T05:42:12;27.48;;;21.65;;
68168;SDS011;54981;50.206;15.978;2024-01-06T05:57:13;27.50;;;22.58;;
68168;SDS011;54981;50.206;15.978;2024-01-06T06:12:13;25.33;;;21.20;;
68168;SDS011;54981;50.206;15.978;2024-01-06T06:27:14;21.15;;;18.63;;
68168;SDS011;54981;50.206;15.978;2024-01-06T06:42:14;26.13;;;21.58;;
68168;SDS011;54981;50.206;15.978;2024-01-06T06:57:15;35.75;;;24.70;;
68168;SDS011;54981;50.206;15.978;2024-01-06T07:12:15;27.02;;;22.27;;
68168;SDS011;54981;50.206;15.978;2024-01-06T07:27:15;55.88;;;32.10;;
68168;SDS011;54981;50.206;15.978;2024-01-06T07:42:16;39.10;;;27.67;;
68168;SDS011;54981;50.206;15.978;2024-01-06T07:57:16;26.45;;;22.10;;
68168;SDS011;54981;50.206;15.978;2024-01-06T08:12:17;91.20;;;56.67;;
68168;SDS011;54981;50.206;15.978;2024-01-06T08:27:17;57.63;;;38.50;;
68168;SDS011;54981;50.206;15.978;2024-01-06T08:42:17;44.35;;;40.50;;
68168;SDS011;54981;50.206;15.978;2024-01-06T08:57:18;43.95;;;39.95;;
68168;SDS011;54981;50.206;15.978;2024-01-06T09:12:19;39.83;;;35.85;;
68168;SDS011;54981;50.206;15.978;2024-01-06T09:27:19;38.38;;;34.70;;
68168;SDS011;54981;50.206;15.978;2024-01-06T09:42:20;40.78;;;36.55;;
68168;SDS011;54981;50.206;15.978;2024-01-06T09:57:20;28.17;;;21.67;;
68168;SDS011;54981;50.206;15.978;2024-01-06T10:12:24;36.03;;;32.47;;
68168;SDS011;54981;50.206;15.978;2024-01-06T10:27:25;35.22;;;31.83;;
68168;SDS011;54981;50.206;15.978;2024-01-06T10:42:25;32.17;;;28.98;;
68168;SDS011;54981;50.206;15.978;2024-01-06T10:57:27;35.17;;;31.65;;
68168;SDS011;54981;50.206;15.978;2024-01-06T11:12:31;57.42;;;52.08;;
68168;SDS011;54981;50.206;15.978;2024-01-06T11:27:32;37.10;;;33.42;;
68168;SDS011;54981;50.206;15.978;2024-01-06T11:42:33;36.47;;;32.75;;
68168;SDS011;54981;50.206;15.978;2024-01-06T11:57:36;43.78;;;39.53;;
68168;SDS011;54981;50.206;15.978;2024-01-06T12:12:37;40.25;;;36.38;;
68168;SDS011;54981;50.206;15.978;2024-01-06T12:27:44;36.78;;;33.25;;
68168;SDS011;54981;50.206;15.978;2024-01-06T12:42:45;40.72;;;36.40;;
68168;SDS011;54981;50.206;15.978;2024-01-06T12:57:45;32.63;;;29.42;;
68168;SDS011;54981;50.206;15.978;2024-01-06T13:12:45;23.50;;;20.67;;
68168;SDS011;54981;50.206;15.978;2024-01-06T13:27:46;24.90;;;22.60;;
68168;SDS011;54981;50.206;15.978;2024-01-06T13:42:46;24.02;;;21.63;;
68168;SDS011;54981;50.206;15.978;2024-01-06T13:57:53;32.65;;;29.35;;
68168;SDS011;54981;50.206;15.978;2024-01-06T14:12:53;39.30;;;34.83;;
68168;SDS011;54981;50.206;15.978;2024-01-06T14:27:54;48.97;;;43.77;;
68168;SDS011;54981;50.206;15.978;2024-01-06T14:42:54;52.28;;;35.50;;
68168;SDS011;54981;50.206;15.978;2024-01-06T14:57:55;45.92;;;32.10;;
68168;SDS011;54981;50.206;15.978;2024-01-06T15:12:55;42.42;;;31.35;;
68168;SDS011;54981;50.206;15.978;2024-01-06T15:27:55;43.97;;;32.85;;
68168;SDS011;54981;50.206;15.978;2024-01-06T15:42:56;49.47;;;33.67;;
68168;SDS011;54981;50.206;15.978;2024-01-06T15:57:57;48.72;;;36.65;;
68168;SDS011;54981;50.206;15.978;2024-01-06T16:12:57;48.58;;;34.88;;
68168;SDS011;54981;50.206;15.978;2024-01-06T16:27:59;48.17;;;31.85;;
68168;SDS011;54981;50.206;15.978;2024-01-06T16:43:00;48.35;;;33.70;;
68168;SDS011;54981;50.206;15.978;2024-01-06T16:58:00;49.08;;;32.45;;
68168;SDS011;54981;50.206;15.978;2024-01-06T17:13:01;35.88;;;28.92;;
68168;SDS011;54981;50.206;15.978;2024-01-06T17:28:02;35.08;;;27.30;;
68168;SDS011;54981;50.206;15.978;2024-01-06T17:43:02;33.58;;;29.23;;
68168;SDS011;54981;50.206;15.978;2024-01-06T17:58:03;31.95;;;26.77;;
68168;SDS011;54981;50.206;15.978;2024-01-06T18:13:04;31.40;;;28.02;;
68168;SDS011;54981;50.206;15.978;2024-01-06T18:28:07;26.35;;;22.45;;
68168;SDS011;54981;50.206;15.978;2024-01-06T18:43:11;27.85;;;23.60;;
68168;SDS011;54981;50.206;15.978;2024-01-06T18:58:14;33.15;;;28.50;;
68168;SDS011;54981;50.206;15.978;2024-01-06T19:13:20;43.55;;;32.97;;
68168;SDS011;54981;50.206;15.978;2024-01-06T19:28:21;55.67;;;39.05;;
68168;SDS011;54981;50.206;15.978;2024-01-06T19:43:26;65.50;;;45.47;;
68168;SDS011;54981;50.206;15.978;2024-01-06T19:58:27;56.63;;;38.50;;
68168;SDS011;54981;50.206;15.978;2024-01-06T20:13:28;58.13;;;38.17;;
68168;SDS011;54981;50.206;15.978;2024-01-06T20:28:30;48.42;;;34.55;;
68168;SDS011;54981;50.206;15.978;2024-01-06T20:43:34;43.13;;;32.78;;
68168;SDS011;54981;50.206;15.978;2024-01-06T20:58:34;37.60;;;29.10;;
68168;SDS011;54981;50.206;15.978;2024-01-06T21:13:35;33.85;;;28.40;;
68168;SDS011;54981;50.206;15.978;2024-01-06T21:28:35;49.72;;;35.97;;
68168;SDS011;54981;50.206;15.978;2024-01-06T21:43:36;43.35;;;33.28;;
68168;SDS011;54981;50.206;15.978;2024-01-06T21:58:36;31.15;;;26.45;;
68168;SDS011;54981;50.206;15.978;2024-01-06T22:13:36;39.35;;;29.95;;
68168;SDS011;54981;50.206;15.978;2024-01-06T22:28:37;35.40;;;26.88;;
68168;SDS011;54981;50.206;15.978;2024-01-06T22:43:37;28.40;;;25.38;;
68168;SDS011;54981;50.206;15.978;2024-01-06T22:58:37;27.48;;;24.55;;
68168;SDS011;54981;50.206;15.978;2024-01-06T23:13:38;25.98;;;23.67;;
68168;SDS011;54981;50.206;15.978;2024-01-06T23:28:39;30.48;;;27.25;;
68168;SDS011;54981;50.206;15.978;2024-01-06T23:43:39;24.60;;;22.02;;
68168;SDS011;54981;50.206;15.978;2024-01-06T23:58:39;27.25;;;24.65;;
